createdAt,value
2023-02-22T00:00:49.998Z,8.37
2023-02-22T00:03:24.848Z,8.35
2023-02-22T00:05:55.849Z,8.31
2023-02-22T00:08:30.328Z,8.27
2023-02-22T00:10:58.182Z,8.26
2023-02-22T00:13:29.219Z,8.25
2023-02-22T00:15:57.255Z,8.22
2023-02-22T00:18:28.191Z,8.21
2023-02-22T00:20:56.234Z,8.21
2023-02-22T00:23:25.377Z,8.18
2023-02-22T00:25:53.332Z,8.17
2023-02-22T00:28:21.110Z,8.11
2023-02-22T00:30:49.229Z,8.07
2023-02-22T00:33:17.636Z,8.03
2023-02-22T00:35:46.593Z,7.97
2023-02-22T00:38:15.971Z,7.91
2023-02-22T00:40:45.317Z,7.86
2023-02-22T00:43:13.387Z,7.81
2023-02-22T00:45:41.160Z,7.75
2023-02-22T00:48:09.628Z,7.70
2023-02-22T00:50:37.504Z,7.67
2023-02-22T00:53:07.342Z,7.60
2023-02-22T00:55:36.979Z,7.56
2023-02-22T00:58:07.261Z,7.54
2023-02-22T01:00:37.433Z,7.51
2023-02-22T01:03:05.958Z,7.49
2023-02-22T01:05:34.947Z,7.48
2023-02-22T01:08:04.102Z,7.45
2023-02-22T01:10:32.352Z,7.40
2023-02-22T01:13:01.421Z,7.37
2023-02-22T01:15:31.239Z,7.31
2023-02-22T01:18:00.846Z,7.19
2023-02-22T01:20:30.099Z,7.19
2023-02-22T01:23:00.144Z,7.19
2023-02-22T01:25:30.268Z,7.17
2023-02-22T01:27:58.947Z,7.18
2023-02-22T01:30:29.099Z,7.15
2023-02-22T01:32:58.546Z,7.14
2023-02-22T01:35:29.072Z,7.12
2023-02-22T01:37:57.953Z,7.09
2023-02-22T01:40:28.277Z,7.06
2023-02-22T01:42:58.447Z,7.03
2023-02-22T01:45:54.080Z,6.99
2023-02-22T01:48:29.201Z,6.97
2023-02-22T01:51:00.419Z,6.92
2023-02-22T01:53:38.297Z,6.87
2023-02-22T01:56:07.741Z,6.81
2023-02-22T01:58:37.321Z,6.78
2023-02-22T02:01:05.552Z,6.77
2023-02-22T02:03:38.551Z,6.75
2023-02-22T02:06:11.876Z,6.74
2023-02-22T02:08:49.888Z,6.70
2023-02-22T02:11:20.863Z,6.66
2023-02-22T02:13:51.592Z,6.63
2023-02-22T02:16:21.774Z,6.59
2023-02-22T02:18:51.197Z,6.56
2023-02-22T02:21:56.377Z,6.55
2023-02-22T02:24:44.502Z,6.52
2023-02-22T02:27:19.203Z,6.48
2023-02-22T02:30:40.818Z,6.46
2023-02-22T02:33:19.531Z,6.41
2023-02-22T02:35:52.649Z,6.38
2023-02-22T02:38:29.775Z,6.33
2023-02-22T02:41:07.263Z,6.31
2023-02-22T02:43:40.833Z,6.30
2023-02-22T02:46:14.122Z,6.30
2023-02-22T02:48:49.063Z,6.29
2023-02-22T02:51:18.953Z,6.28
2023-02-22T02:53:51.209Z,6.26
2023-02-22T02:56:19.358Z,6.26
2023-02-22T02:58:50.145Z,6.24
2023-02-22T03:01:33.538Z,6.24
2023-02-22T03:04:22.104Z,6.23
2023-02-22T03:07:24.031Z,6.22
2023-02-22T03:10:03.912Z,6.24
2023-02-22T03:12:43.865Z,6.27
2023-02-22T03:15:22.001Z,6.29
2023-02-22T03:17:56.192Z,6.30
2023-02-22T03:20:31.738Z,6.35
2023-02-22T03:23:05.891Z,6.38
2023-02-22T03:25:37.561Z,6.38
2023-02-22T03:28:11.517Z,6.40
2023-02-22T03:30:43.999Z,6.43
2023-02-22T03:33:14.048Z,6.48
2023-02-22T03:35:48.139Z,6.49
2023-02-22T03:38:20.293Z,6.49
2023-02-22T03:40:54.417Z,6.51
2023-02-22T03:43:26.812Z,6.51
2023-02-22T03:45:58.615Z,6.51
2023-02-22T03:48:34.127Z,6.52
2023-02-22T03:51:04.645Z,6.53
2023-02-22T03:53:37.069Z,6.54
2023-02-22T03:56:10.394Z,6.58
2023-02-22T03:58:39.879Z,6.60
2023-02-22T04:01:07.619Z,6.62
2023-02-22T04:03:35.308Z,6.65
2023-02-22T04:06:04.904Z,6.67
2023-02-22T04:08:32.762Z,6.68
2023-02-22T04:11:01.300Z,6.69
2023-02-22T04:13:29.104Z,6.70
2023-02-22T04:15:56.919Z,6.71
2023-02-22T04:18:24.655Z,6.73
2023-02-22T04:20:52.540Z,6.74
2023-02-22T04:23:21.811Z,6.78
2023-02-22T04:25:49.540Z,6.78
2023-02-22T04:28:17.255Z,6.78
2023-02-22T04:30:45.781Z,6.81
2023-02-22T04:33:14.406Z,6.84
2023-02-22T04:35:42.067Z,6.88
2023-02-22T04:38:10.616Z,6.89
2023-02-22T04:40:40.224Z,6.90
2023-02-22T04:43:08.034Z,6.94
2023-02-22T04:45:36.011Z,6.94
2023-02-22T04:48:03.725Z,6.94
2023-02-22T04:50:31.610Z,6.93
2023-02-22T04:52:59.383Z,6.92
2023-02-22T04:55:28.075Z,6.95
2023-02-22T04:57:57.473Z,6.96
2023-02-22T05:00:25.427Z,6.97
2023-02-22T05:02:53.220Z,6.98
2023-02-22T05:05:22.822Z,6.95
2023-02-22T05:07:50.835Z,6.93
2023-02-22T05:10:18.841Z,6.95
2023-02-22T05:12:46.790Z,6.93
2023-02-22T05:15:19.450Z,6.97
2023-02-22T05:17:47.610Z,6.97
2023-02-22T05:20:22.804Z,6.98
2023-02-22T05:22:51.973Z,7.02
2023-02-22T05:25:21.435Z,7.04
2023-02-22T05:27:53.819Z,7.07
2023-02-22T05:30:25.838Z,7.08
2023-02-22T05:32:54.437Z,7.09
2023-02-22T05:35:23.659Z,7.05
2023-02-22T05:37:51.742Z,7.03
2023-02-22T05:40:21.094Z,7.05
2023-02-22T05:42:50.088Z,7.07
2023-02-22T05:45:19.347Z,7.05
2023-02-22T05:47:49.075Z,7.06
2023-02-22T05:50:17.452Z,7.06
2023-02-22T05:52:45.148Z,7.07
2023-02-22T05:55:15.793Z,7.05
2023-02-22T05:57:43.537Z,7.07
2023-02-22T06:00:17.051Z,7.09
2023-02-22T06:02:44.958Z,7.02
2023-02-22T06:05:14.023Z,6.99
2023-02-22T06:07:44.612Z,6.97
2023-02-22T06:10:13.925Z,6.93
2023-02-22T06:12:41.809Z,7.00
2023-02-22T06:15:09.919Z,7.12
2023-02-22T06:17:37.934Z,7.14
2023-02-22T06:20:06.155Z,7.16
2023-02-22T06:22:35.164Z,7.16
2023-02-22T06:25:03.643Z,7.17
2023-02-22T06:27:32.121Z,7.17
2023-02-22T06:30:00.183Z,7.17
2023-02-22T06:32:28.104Z,7.17
2023-02-22T06:34:55.805Z,7.18
2023-02-22T06:37:23.514Z,7.18
2023-02-22T06:39:52.534Z,7.20
2023-02-22T06:42:20.277Z,7.21
2023-02-22T06:44:48.955Z,7.21
2023-02-22T06:47:17.278Z,7.22
2023-02-22T06:49:44.985Z,7.18
2023-02-22T06:52:12.715Z,7.15
2023-02-22T06:54:40.620Z,7.13
2023-02-22T06:57:10.242Z,7.12
2023-02-22T06:59:37.973Z,7.10
2023-02-22T07:02:06.169Z,7.09
2023-02-22T07:04:35.497Z,7.09
2023-02-22T07:07:05.057Z,7.09
2023-02-22T07:09:33.194Z,7.07
2023-02-22T07:12:01.322Z,7.06
2023-02-22T07:14:30.721Z,7.06
2023-02-22T07:16:58.776Z,7.09
2023-02-22T07:19:26.664Z,7.14
2023-02-22T07:21:59.401Z,7.15
2023-02-22T07:24:31.027Z,7.17
2023-02-22T07:26:58.666Z,7.23
2023-02-22T07:29:26.371Z,7.26
2023-02-22T07:31:55.432Z,7.30
2023-02-22T07:34:23.160Z,7.33
2023-02-22T07:36:50.886Z,7.38
2023-02-22T07:39:18.590Z,7.40
2023-02-22T07:41:46.246Z,7.44
2023-02-22T07:44:14.024Z,7.51
2023-02-22T07:46:41.693Z,7.53
2023-02-22T07:49:10.746Z,7.60
2023-02-22T07:51:38.584Z,7.62
2023-02-22T07:54:06.386Z,7.67
2023-02-22T07:56:34.118Z,7.72
2023-02-22T07:59:01.856Z,7.78
2023-02-22T08:01:29.931Z,7.85
2023-02-22T08:03:57.671Z,7.91
2023-02-22T08:06:28.147Z,7.96
2023-02-22T08:08:55.909Z,7.99
2023-02-22T08:11:23.840Z,8.05
2023-02-22T08:13:51.775Z,8.12
2023-02-22T08:16:19.513Z,8.17
2023-02-22T08:18:47.275Z,8.23
2023-02-22T08:21:15.602Z,8.27
2023-02-22T08:23:44.919Z,8.32
2023-02-22T08:26:15.580Z,8.37
2023-02-22T08:28:43.293Z,8.40
2023-02-22T08:31:11.038Z,8.41
2023-02-22T08:33:38.899Z,8.42
2023-02-22T08:36:07.243Z,8.44
2023-02-22T08:38:35.042Z,8.42
2023-02-22T08:41:04.185Z,8.43
2023-02-22T08:43:31.902Z,8.43
2023-02-22T08:45:59.627Z,8.47
2023-02-22T08:48:27.670Z,8.52
2023-02-22T08:50:56.244Z,8.56
2023-02-22T08:53:23.905Z,8.61
2023-02-22T08:55:51.582Z,8.63
2023-02-22T08:58:20.986Z,8.68
2023-02-22T09:00:49.195Z,8.76
2023-02-22T09:03:17.220Z,8.85
2023-02-22T09:05:45.778Z,8.95
2023-02-22T09:08:13.598Z,9.04
2023-02-22T09:10:41.656Z,9.11
2023-02-22T09:13:09.748Z,9.17
2023-02-22T09:15:39.934Z,9.23
2023-02-22T09:18:10.363Z,9.29
2023-02-22T09:20:38.335Z,9.33
2023-02-22T09:23:07.341Z,9.42
2023-02-22T09:25:35.697Z,9.47
2023-02-22T09:28:03.736Z,9.50
2023-02-22T09:30:33.924Z,9.54
2023-02-22T09:33:05.495Z,9.64
2023-02-22T09:35:36.381Z,9.76
2023-02-22T09:38:06.806Z,9.86
2023-02-22T09:40:41.215Z,9.95
2023-02-22T09:43:18.926Z,10.06
2023-02-22T09:46:04.110Z,10.13
2023-02-22T09:48:36.298Z,10.21
2023-02-22T09:51:12.003Z,10.27
2023-02-22T09:53:45.676Z,10.38
2023-02-22T09:56:18.158Z,10.46
2023-02-22T09:58:49.200Z,10.53
2023-02-22T10:01:26.967Z,10.65
2023-02-22T10:04:02.482Z,10.75
2023-02-22T10:06:33.499Z,10.84
2023-02-22T10:09:07.781Z,10.94
2023-02-22T10:11:50.668Z,11.03
2023-02-22T10:14:35.936Z,11.05
2023-02-22T10:17:17.604Z,11.16
2023-02-22T10:20:01.542Z,11.21
2023-02-22T10:22:51.502Z,11.30
2023-02-22T10:25:23.029Z,11.43
2023-02-22T10:27:57.639Z,11.53
2023-02-22T10:30:32.649Z,11.62
2023-02-22T10:33:10.442Z,11.69
2023-02-22T10:35:41.218Z,11.75
2023-02-22T10:38:16.661Z,11.83
2023-02-22T10:40:47.617Z,11.87
2023-02-22T10:43:15.445Z,11.90
2023-02-22T10:45:43.534Z,11.96
2023-02-22T10:48:15.252Z,11.99
2023-02-22T10:50:45.947Z,12.11
2023-02-22T10:53:15.310Z,12.22
2023-02-22T10:56:13.732Z,12.33
2023-02-22T10:58:43.812Z,12.45
2023-02-22T11:01:23.096Z,12.52
2023-02-22T11:04:04.076Z,12.61
2023-02-22T11:06:34.604Z,12.69
2023-02-22T11:09:14.087Z,12.77
2023-02-22T11:11:44.092Z,12.86
2023-02-22T11:14:13.245Z,12.91
2023-02-22T11:16:44.255Z,12.98
2023-02-22T11:19:20.673Z,13.09
2023-02-22T11:21:53.044Z,13.18
2023-02-22T11:24:24.100Z,13.24
2023-02-22T11:26:56.284Z,13.30
2023-02-22T11:29:28.676Z,13.39
2023-02-22T11:31:57.177Z,13.45
2023-02-22T11:34:35.074Z,13.55
2023-02-22T11:37:30.374Z,13.60
2023-02-22T11:40:17.672Z,13.64
2023-02-22T11:42:46.118Z,13.73
2023-02-22T11:45:17.169Z,13.81
2023-02-22T11:47:54.188Z,13.87
2023-02-22T11:50:28.942Z,13.93
2023-02-22T11:53:18.449Z,14.00
2023-02-22T11:55:58.177Z,14.11
2023-02-22T11:58:41.265Z,14.17
2023-02-22T12:01:18.189Z,14.24
2023-02-22T12:04:14.083Z,14.35
2023-02-22T12:06:51.389Z,14.47
2023-02-22T12:09:27.275Z,14.56
2023-02-22T12:12:03.765Z,14.66
2023-02-22T12:14:42.520Z,14.70
2023-02-22T12:17:23.769Z,14.76
2023-02-22T12:19:55.703Z,14.84
2023-02-22T12:22:27.826Z,14.88
2023-02-22T12:25:09.560Z,14.91
2023-02-22T12:27:44.605Z,14.95
2023-02-22T12:30:19.255Z,15.01
2023-02-22T12:32:51.706Z,15.07
2023-02-22T12:35:22.707Z,15.10
2023-02-22T12:37:55.884Z,15.12
2023-02-22T12:40:35.582Z,15.11
2023-02-22T12:43:07.618Z,15.12
2023-02-22T12:45:40.950Z,15.12
2023-02-22T12:48:26.075Z,15.15
2023-02-22T12:50:57.588Z,15.22
2023-02-22T12:53:32.408Z,15.26
2023-02-22T12:56:15.911Z,15.27
2023-02-22T12:58:50.577Z,15.27
2023-02-22T13:01:21.556Z,15.25
2023-02-22T13:03:50.173Z,15.24
2023-02-22T13:06:30.937Z,15.26
2023-02-22T13:09:17.374Z,15.21
2023-02-22T13:11:57.200Z,15.24
2023-02-22T13:14:44.435Z,15.29
2023-02-22T13:17:23.557Z,15.32
2023-02-22T13:20:00.346Z,15.35
2023-02-22T13:22:34.405Z,15.37
2023-02-22T13:25:09.150Z,15.41
2023-02-22T13:27:44.159Z,15.47
2023-02-22T13:30:21.366Z,15.46
2023-02-22T13:33:05.281Z,15.47
2023-02-22T13:35:53.883Z,15.48
2023-02-22T13:38:59.045Z,15.47
2023-02-22T13:41:50.809Z,15.47
2023-02-22T13:44:47.608Z,15.46
2023-02-22T13:47:34.926Z,15.46
2023-02-22T13:50:41.387Z,15.49
2023-02-22T13:53:19.106Z,15.50
2023-02-22T13:55:53.188Z,15.55
2023-02-22T13:58:21.957Z,15.64
2023-02-22T14:01:03.870Z,15.70
2023-02-22T14:03:41.876Z,15.77
2023-02-22T14:06:12.029Z,15.81
2023-02-22T14:08:47.356Z,15.85
2023-02-22T14:11:45.653Z,15.88
2023-02-22T14:14:19.315Z,15.91
2023-02-22T14:17:30.637Z,15.92
2023-02-22T14:20:30.047Z,15.89
2023-02-22T14:22:59.468Z,15.86
2023-02-22T14:25:40.304Z,15.85
2023-02-22T14:28:11.078Z,15.84
2023-02-22T14:30:42.362Z,15.83
2023-02-22T14:33:44.307Z,15.83
2023-02-22T14:36:13.839Z,15.75
2023-02-22T14:38:46.107Z,15.72
2023-02-22T14:41:19.487Z,15.66
2023-02-22T14:43:55.180Z,15.58
2023-02-22T14:46:27.860Z,15.48
2023-02-22T14:49:02.001Z,15.46
2023-02-22T14:51:41.479Z,15.45
2023-02-22T14:54:17.587Z,15.43
2023-02-22T14:56:53.169Z,15.43
2023-02-22T14:59:24.159Z,15.42
2023-02-22T15:02:11.666Z,15.42
2023-02-22T15:04:43.855Z,15.45
2023-02-22T15:07:27.230Z,15.46
2023-02-22T15:10:21.907Z,15.46
2023-02-22T15:12:53.593Z,15.45
2023-02-22T15:15:24.471Z,15.44
2023-02-22T15:17:57.408Z,15.40
2023-02-22T15:20:26.957Z,15.38
2023-02-22T15:23:01.279Z,15.35
2023-02-22T15:25:31.794Z,15.35
2023-02-22T15:28:04.946Z,15.31
2023-02-22T15:30:34.991Z,15.26
2023-02-22T15:33:16.367Z,15.23
2023-02-22T15:35:45.133Z,15.24
2023-02-22T15:38:23.800Z,15.26
2023-02-22T15:41:02.595Z,15.19
2023-02-22T15:43:32.250Z,15.16
2023-02-22T15:46:01.845Z,15.15
2023-02-22T15:48:31.675Z,15.15
2023-02-22T15:51:06.566Z,15.16
2023-02-22T15:53:41.761Z,15.17
2023-02-22T15:56:13.551Z,15.14
2023-02-22T15:58:42.394Z,15.09
2023-02-22T16:01:14.052Z,15.06
2023-02-22T16:03:47.065Z,15.01
2023-02-22T16:06:21.014Z,14.96
2023-02-22T16:08:55.479Z,14.91
2023-02-22T16:11:30.061Z,14.87
2023-02-22T16:14:01.326Z,14.83
2023-02-22T16:16:31.424Z,14.78
2023-02-22T16:19:27.724Z,14.73
2023-02-22T16:21:58.257Z,14.66
2023-02-22T16:24:32.568Z,14.61
2023-02-22T16:27:08.434Z,14.57
2023-02-22T16:29:36.300Z,14.56
2023-02-22T16:32:04.739Z,14.55
2023-02-22T16:34:32.543Z,14.53
2023-02-22T16:37:01.260Z,14.49
2023-02-22T16:39:31.998Z,14.44
2023-02-22T16:42:01.943Z,14.37
2023-02-22T16:44:30.756Z,14.34
2023-02-22T16:47:00.574Z,14.33
2023-02-22T16:49:28.653Z,14.31
2023-02-22T16:52:01.646Z,14.29
2023-02-22T16:54:36.585Z,14.27
2023-02-22T16:57:06.732Z,14.23
2023-02-22T16:59:39.644Z,14.21
2023-02-22T17:02:13.124Z,14.19
2023-02-22T17:04:41.028Z,14.15
2023-02-22T17:07:09.319Z,14.10
2023-02-22T17:09:39.523Z,14.05
2023-02-22T17:12:07.866Z,14.01
2023-02-22T17:14:40.394Z,14.00
2023-02-22T17:17:09.118Z,13.93
2023-02-22T17:19:37.756Z,13.85
2023-02-22T17:22:10.323Z,13.81
2023-02-22T17:24:39.831Z,13.74
2023-02-22T17:27:07.953Z,13.67
2023-02-22T17:29:35.735Z,13.59
2023-02-22T17:32:03.678Z,13.55
2023-02-22T17:34:32.785Z,13.45
2023-02-22T17:37:05.993Z,13.45
2023-02-22T17:39:35.812Z,13.44
2023-02-22T17:42:08.331Z,13.44
2023-02-22T17:44:35.809Z,13.43
2023-02-22T17:47:03.594Z,13.46
2023-02-22T17:49:31.396Z,13.46
2023-02-22T17:52:02.746Z,13.39
2023-02-22T17:54:30.594Z,13.36
2023-02-22T17:57:01.524Z,13.33
2023-02-22T17:59:30.705Z,13.29
2023-02-22T18:01:58.614Z,13.29
2023-02-22T18:04:26.528Z,13.27
2023-02-22T18:06:54.272Z,13.17
2023-02-22T18:09:24.344Z,13.14
2023-02-22T18:11:52.275Z,13.03
2023-02-22T18:14:20.080Z,13.01
2023-02-22T18:16:49.349Z,12.95
2023-02-22T18:19:20.034Z,12.83
2023-02-22T18:21:52.726Z,12.75
2023-02-22T18:24:20.537Z,12.73
2023-02-22T18:26:48.358Z,12.69
2023-02-22T18:29:16.195Z,12.69
2023-02-22T18:31:45.423Z,12.69
2023-02-22T18:34:17.624Z,12.70
2023-02-22T18:36:45.462Z,12.69
2023-02-22T18:39:13.239Z,12.64
2023-02-22T18:41:41.012Z,12.62
2023-02-22T18:44:11.057Z,12.64
2023-02-22T18:46:38.995Z,12.63
2023-02-22T18:49:06.758Z,12.62
2023-02-22T18:51:36.052Z,12.62
2023-02-22T18:54:04.060Z,12.58
2023-02-22T18:56:31.831Z,12.58
2023-02-22T18:59:01.429Z,12.50
2023-02-22T19:01:31.092Z,12.48
2023-02-22T19:03:59.299Z,12.43
2023-02-22T19:06:27.057Z,12.41
2023-02-22T19:08:56.198Z,12.43
2023-02-22T19:11:25.571Z,12.38
2023-02-22T19:14:05.369Z,12.33
2023-02-22T19:17:04.742Z,12.36
2023-02-22T19:19:38.510Z,12.36
2023-02-22T19:22:06.330Z,12.37
2023-02-22T19:24:36.324Z,12.38
2023-02-22T19:27:05.388Z,12.36
2023-02-22T19:29:33.183Z,12.32
2023-02-22T19:32:01.049Z,12.32
2023-02-22T19:34:31.229Z,12.30
2023-02-22T19:37:00.885Z,12.25
2023-02-22T19:39:29.956Z,12.24
2023-02-22T19:41:59.764Z,12.23
2023-02-22T19:44:28.749Z,12.23
2023-02-22T19:46:56.535Z,12.18
2023-02-22T19:51:53.584Z,12.18
2023-02-22T19:54:23.816Z,12.18
2023-02-22T19:56:51.902Z,12.15
2023-02-22T19:59:24.448Z,12.14
2023-02-22T20:02:04.871Z,12.06
2023-02-22T20:04:33.512Z,12.03
2023-02-22T20:07:02.069Z,11.98
2023-02-22T20:09:37.276Z,11.96
2023-02-22T20:12:08.819Z,11.96
2023-02-22T20:14:38.947Z,11.99
2023-02-22T20:17:07.741Z,12.01
2023-02-22T20:19:40.309Z,11.99
2023-02-22T20:22:08.209Z,11.97
2023-02-22T20:24:38.688Z,11.97
2023-02-22T20:27:06.467Z,11.96
2023-02-22T20:29:36.272Z,11.96
2023-02-22T20:32:07.658Z,11.97
2023-02-22T20:34:36.261Z,11.94
2023-02-22T20:37:04.781Z,11.91
2023-02-22T20:39:34.807Z,11.94
2023-02-22T20:42:04.728Z,11.93
2023-02-22T20:44:32.582Z,11.94
2023-02-22T20:47:00.460Z,11.90
2023-02-22T20:49:29.850Z,11.86
2023-02-22T20:51:57.788Z,11.84
2023-02-22T20:54:25.865Z,11.85
2023-02-22T20:56:53.825Z,11.83
2023-02-22T20:59:22.149Z,11.87
2023-02-22T21:01:50.442Z,11.84
2023-02-22T21:04:18.830Z,11.84
2023-02-22T21:06:55.709Z,11.81
2023-02-22T21:09:26.208Z,11.80
2023-02-22T21:11:54.061Z,11.77
2023-02-22T21:14:24.970Z,11.77
2023-02-22T21:16:54.258Z,11.74
2023-02-22T21:19:26.402Z,11.77
2023-02-22T21:21:59.237Z,11.77
2023-02-22T21:24:28.923Z,11.76
2023-02-22T21:26:58.552Z,11.75
2023-02-22T21:29:26.382Z,11.70
2023-02-22T21:31:54.359Z,11.70
2023-02-22T21:34:22.487Z,11.71
2023-02-22T21:36:50.575Z,11.71
2023-02-22T21:39:19.994Z,11.69
2023-02-22T21:41:49.711Z,11.67
2023-02-22T21:44:18.773Z,11.66
2023-02-22T21:46:48.831Z,11.68
2023-02-22T21:49:17.127Z,11.67
2023-02-22T21:51:45.483Z,11.65
2023-02-22T21:54:13.893Z,11.64
2023-02-22T21:56:44.199Z,11.65
2023-02-22T21:59:14.703Z,11.66
2023-02-22T22:01:47.225Z,11.67
2023-02-22T22:04:19.800Z,11.65
2023-02-22T22:06:48.746Z,11.64
2023-02-22T22:09:19.843Z,11.65
2023-02-22T22:11:51.195Z,11.65
2023-02-22T22:14:19.894Z,11.60
2023-02-22T22:16:50.137Z,11.60
2023-02-22T22:19:18.378Z,11.59
2023-02-22T22:21:49.921Z,11.58
2023-02-22T22:24:20.550Z,11.58
2023-02-22T22:26:54.579Z,11.56
2023-02-22T22:29:23.697Z,11.58
2023-02-22T22:31:52.287Z,11.58
2023-02-22T22:34:20.098Z,11.59
2023-02-22T22:36:48.088Z,11.60
2023-02-22T22:39:16.137Z,11.59
2023-02-22T22:41:45.174Z,11.59
2023-02-22T22:44:16.171Z,11.57
2023-02-22T22:46:49.084Z,11.57
2023-02-22T22:49:21.006Z,11.57
2023-02-22T22:51:49.274Z,11.53
2023-02-22T23:01:52.513Z,11.52
2023-02-22T23:04:24.097Z,11.53
2023-02-22T23:06:53.627Z,11.53
2023-02-22T23:09:24.879Z,11.53
2023-02-22T23:11:54.973Z,11.53
2023-02-22T23:14:24.162Z,11.53
2023-02-22T23:16:56.512Z,11.49
2023-02-22T23:19:24.213Z,11.50
2023-02-22T23:21:52.068Z,11.47
2023-02-22T23:24:21.190Z,11.43
2023-02-22T23:26:49.531Z,11.42
2023-02-22T23:29:18.584Z,11.43
2023-02-22T23:31:48.299Z,11.43
2023-02-22T23:34:18.615Z,11.41
2023-02-22T23:36:46.844Z,11.37
2023-02-22T23:39:17.445Z,11.36
2023-02-22T23:41:45.090Z,11.35
2023-02-22T23:44:17.362Z,11.34
2023-02-22T23:46:48.077Z,11.34
2023-02-22T23:49:20.329Z,11.35
2023-02-22T23:51:49.014Z,11.30
2023-02-22T23:54:20.251Z,11.29
2023-02-22T23:56:56.301Z,11.27
2023-02-22T23:59:24.821Z,11.25
